| time (UTC) | temp C | wind direction | speed KPH | gust KPH | rain 1hr cm | rain 24hr cm | rain mn cm | humidity % | barometer mb |
| 20260906181427 | 36 | 58 | 9.7 | 19.3 | 0.00 | 0.00 | 0.00 | 40 | 1015.3 |
| 20260906180922 | 35 | 68 | 6.4 | 17.7 | 0.00 | 0.00 | 0.00 | 40 | 1015.3 |
| 20260906180417 | 36 | 324 | 3.2 | 9.7 | 0.00 | 0.00 | 0.00 | 40 | 1015.4 |
| 20260906175915 | 36 | 44 | 4.8 | 12.9 | 0.00 | 0.00 | 0.00 | 40 | 1015.4 |
| 20260906175410 | 35 | 43 | 8.0 | 16.1 | 0.00 | 0.00 | 0.00 | 41 | 1015.6 |
| 20260906174908 | 36 | 26 | 12.9 | 14.5 | 0.00 | 0.00 | 0.00 | 39 | 1015.7 |
| 20260906174408 | 36 | 19 | 9.7 | 19.3 | 0.00 | 0.00 | 0.00 | 40 | 1015.7 |
| 20260906173903 | 36 | 334 | 8.0 | 8.0 | 0.00 | 0.00 | 0.00 | 38 | 1016.0 |
| 20260906173359 | 36 | 28 | 8.0 | 16.1 | 0.00 | 0.00 | 0.00 | 39 | 1015.9 |
| 20260906172858 | 36 | 144 | 6.4 | 14.5 | 0.00 | 0.00 | 0.00 | 40 | 1016.0 |
| 20260906172355 | 35 | 76 | 6.4 | 20.9 | 0.00 | 0.00 | 0.00 | 40 | 1016.1 |
| 20260906171854 | 36 | 47 | 16.1 | 22.5 | 0.00 | 0.00 | 0.00 | 39 | 1016.1 |
| 20260906171349 | 36 | 48 | 14.5 | 24.1 | 0.00 | 0.00 | 0.00 | 39 | 1016.1 |
| 20260906170845 | 37 | 11 | 12.9 | 12.9 | 0.00 | 0.00 | 0.00 | 37 | 1016.4 |
| 20260906170341 | 38 | 29 | 3.2 | 6.4 | 0.00 | 0.00 | 0.00 | 37 | 1016.2 |
| 20260906165837 | 38 | 13 | 3.2 | 6.4 | 0.00 | 0.00 | 0.00 | 39 | 1016.5 |
| 20260906165336 | 38 | 25 | 6.4 | 8.0 | 0.00 | 0.00 | 0.00 | 37 | 1016.5 |
| 20260906164831 | 37 | 6 | 3.2 | 9.7 | 0.00 | 0.00 | 0.00 | 39 | 1016.5 |
| 20260906164331 | 36 | 65 | 3.2 | 8.0 | 0.00 | 0.00 | 0.00 | 40 | 1016.5 |
| 20260906163827 | 36 | 22 | 14.5 | 14.5 | 0.00 | 0.00 | 0.00 | 41 | 1016.6 |
| 20260906163323 | 36 | 296 | 1.6 | 9.7 | 0.00 | 0.00 | 0.00 | 40 | 1016.7 |
| 20260906162820 | 36 | 51 | 8.0 | 9.7 | 0.00 | 0.00 | 0.00 | 41 | 1016.8 |
| 20260906162319 | 36 | 15 | 4.8 | 6.4 | 0.00 | 0.00 | 0.00 | 41 | 1016.8 |
| 20260906161814 | 36 | 24 | 6.4 | 14.5 | 0.00 | 0.00 | 0.00 | 42 | 1016.8 |
| 20260906161314 | 36 | 318 | 6.4 | 14.5 | 0.00 | 0.00 | 0.00 | 41 | 1016.8 |
| 20260906160813 | 37 | 279 | 4.8 | 4.8 | 0.00 | 0.00 | 0.00 | 40 | 1016.8 |
| 20260906160307 | 37 | 162 | 3.2 | 8.0 | 0.00 | 0.00 | 0.00 | 40 | 1017.0 |
| 20260906155805 | 37 | 107 | 3.2 | 4.8 | 0.00 | 0.00 | 0.00 | 41 | 1016.9 |
| 20260906155259 | 35 | 133 | 4.8 | 9.7 | 0.00 | 0.00 | 0.00 | 44 | 1016.8 |
| 20260906154755 | 35 | 79 | 3.2 | 8.0 | 0.00 | 0.00 | 0.00 | 44 | 1016.9 |
| 20260906154250 | 36 | 73 | 3.2 | 6.4 | 0.00 | 0.00 | 0.00 | 43 | 1016.7 |
| 20260906153749 | 35 | 133 | 6.4 | 8.0 | 0.00 | 0.00 | 0.00 | 44 | 1016.7 |
| 20260906153243 | 35 | 104 | 8.0 | 8.0 | 0.00 | 0.00 | 0.00 | 44 | 1016.8 |
| 20260906152739 | 35 | 28 | 9.7 | 9.7 | 0.00 | 0.00 | 0.00 | 45 | 1016.9 |
| 20260906152239 | 35 | 197 | 3.2 | 6.4 | 0.00 | 0.00 | 0.00 | 46 | 1016.6 |
| 20260906151738 | 34 | 191 | 4.8 | 9.7 | 0.00 | 0.00 | 0.00 | 46 | 1016.7 |
| 20260906151234 | 35 | 221 | 4.8 | 4.8 | 0.00 | 0.00 | 0.00 | 45 | 1016.8 |
| 20260906150729 | 34 | 299 | 6.4 | 8.0 | 0.00 | 0.00 | 0.00 | 48 | 1016.7 |
| 20260906150225 | 33 | 233 | 16.1 | 17.7 | 0.00 | 0.00 | 0.00 | 49 | 1016.7 |
| 20260906145723 | 34 | 222 | 11.3 | 12.9 | 0.00 | 0.00 | 0.00 | 48 | 1016.7 |
| 20260906145223 | 33 | 214 | 3.2 | 4.8 | 0.00 | 0.00 | 0.00 | 50 | 1016.8 |
| 20260906144718 | 33 | 276 | 3.2 | 6.4 | 0.00 | 0.00 | 0.00 | 52 | 1016.6 |
| 20260906144213 | 32 | 265 | 6.4 | 16.1 | 0.00 | 0.00 | 0.00 | 54 | 1016.7 |
| 20260906143712 | 32 | 265 | 14.5 | 14.5 | 0.00 | 0.00 | 0.00 | 54 | 1016.8 |
| 20260906143210 | 32 | 262 | 12.9 | 14.5 | 0.00 | 0.00 | 0.00 | 54 | 1016.7 |
| 20260906142709 | 31 | 260 | 9.7 | 14.5 | 0.00 | 0.00 | 0.00 | 55 | 1016.7 |
| 20260906142204 | 31 | 219 | 8.0 | 9.7 | 0.00 | 0.00 | 0.00 | 55 | 1016.7 |
| 20260906141703 | 31 | 220 | 8.0 | 12.9 | 0.00 | 0.00 | 0.00 | 55 | 1016.7 |
| 20260906141158 | 31 | 236 | 6.4 | 9.7 | 0.00 | 0.00 | 0.00 | 55 | 1016.7 |
| 20260906140657 | 31 | 179 | 6.4 | 9.7 | 0.00 | 0.00 | 0.00 | 56 | 1016.6 |
| 20260906140152 | 30 | 198 | 6.4 | 11.3 | 0.00 | 0.00 | 0.00 | 57 | 1016.5 |
| 20260906135649 | 30 | 250 | 6.4 | 12.9 | 0.00 | 0.00 | 0.00 | 58 | 1016.6 |
| 20260906135145 | 30 | 243 | 9.7 | 9.7 | 0.00 | 0.00 | 0.00 | 57 | 1016.6 |
| 20260906134640 | 30 | 161 | 4.8 | 6.4 | 0.00 | 0.00 | 0.00 | 59 | 1016.5 |
| 20260906134135 | 30 | 208 | 6.4 | 6.4 | 0.00 | 0.00 | 0.00 | 57 | 1016.4 |
| 20260906133631 | 30 | 229 | 4.8 | 6.4 | 0.00 | 0.00 | 0.00 | 60 | 1016.4 |
| 20260906133126 | 28 | 174 | 4.8 | 8.0 | 0.00 | 0.00 | 0.00 | 63 | 1016.4 |
| 20260906132626 | 28 | 151 | 9.7 | 11.3 | 0.00 | 0.00 | 0.00 | 64 | 1016.4 |
| 20260906132122 | 28 | 157 | 11.3 | 12.9 | 0.00 | 0.00 | 0.00 | 64 | 1016.3 |
| 20260906131618 | 28 | 189 | 9.7 | 11.3 | 0.00 | 0.00 | 0.00 | 64 | 1016.3 |
| 20260906131113 | 27 | 168 | 4.8 | 6.4 | 0.00 | 0.00 | 0.00 | 66 | 1016.3 |
| 20260906130608 | 27 | 145 | 6.4 | 8.0 | 0.00 | 0.00 | 0.00 | 67 | 1016.1 |
| 20260906130103 | 26 | 141 | 6.4 | 8.0 | 0.00 | 0.00 | 0.00 | 69 | 1016.0 |
| 20260906125601 | 26 | 137 | 6.4 | 6.4 | 0.00 | 0.00 | 0.00 | 69 | 1016.2 |
| 20260906125100 | 26 | 131 | 4.8 | 6.4 | 0.00 | 0.00 | 0.00 | 68 | 1016.1 |
| 20260906124555 | 26 | 113 | 3.2 | 8.0 | 0.00 | 0.00 | 0.00 | 70 | 1016.0 |
| 20260906124051 | 25 | 139 | 8.0 | 8.0 | 0.00 | 0.00 | 0.00 | 71 | 1016.1 |
| 20260906123550 | 25 | 140 | 3.2 | 6.4 | 0.00 | 0.00 | 0.00 | 71 | 1016.2 |
| 20260906123045 | 25 | 118 | 1.6 | 6.4 | 0.00 | 0.00 | 0.00 | 71 | 1015.9 |
| 20260906122544 | 25 | 143 | 3.2 | 3.2 | 0.00 | 0.00 | 0.00 | 71 | 1015.9 |
| 20260906122041 | 25 | 130 | 3.2 | 3.2 | 0.00 | 0.00 | 0.00 | 72 | 1015.9 |
| 20260906121536 | 25 | 134 | 4.8 | 6.4 | 0.00 | 0.00 | 0.00 | 73 | 1015.7 |
| 20260906121032 | 24 | 140 | 4.8 | 6.4 | 0.00 | 0.00 | 0.00 | 73 | 1015.8 |
| 20260906120527 | 24 | 137 | 4.8 | 6.4 | 0.00 | 0.00 | 0.00 | 75 | 1015.6 |
| 20260906120025 | 24 | 154 | 3.2 | 3.2 | 0.00 | 0.00 | 0.00 | 75 | 1015.7 |
| 20260906115524 | 24 | 141 | 1.6 | 4.8 | 0.00 | 0.00 | 0.00 | 74 | 1015.8 |
| 20260906115019 | 25 | 96 | 3.2 | 4.8 | 0.00 | 0.00 | 0.00 | 73 | 1015.8 |
| 20260906114514 | 24 | 63 | 3.2 | 3.2 | 0.00 | 0.00 | 0.00 | 74 | 1015.6 |
| 20260906114010 | 24 | 150 | 3.2 | 4.8 | 0.00 | 0.00 | 0.00 | 74 | 1015.5 |
| 20260906113508 | 24 | 87 | 1.6 | 3.2 | 0.00 | 0.00 | 0.00 | 75 | 1015.5 |
| 20260906113004 | 24 | 122 | 3.2 | 8.0 | 0.00 | 0.00 | 0.00 | 74 | 1015.5 |
| 20260906112459 | 24 | 136 | 4.8 | 11.3 | 0.00 | 0.00 | 0.00 | 75 | 1015.6 |
| 20260906111955 | 24 | 149 | 4.8 | 8.0 | 0.00 | 0.00 | 0.00 | 74 | 1015.6 |
| 20260906111454 | 24 | 132 | 9.7 | 12.9 | 0.00 | 0.00 | 0.00 | 74 | 1015.3 |
| 20260906110949 | 25 | 135 | 4.8 | 4.8 | 0.00 | 0.00 | 0.00 | 73 | 1015.5 |
| 20260906110444 | 25 | 145 | 4.8 | 4.8 | 0.00 | 0.00 | 0.00 | 73 | 1015.2 |
| 20260906105943 | 24 | 143 | 1.6 | 4.8 | 0.00 | 0.00 | 0.00 | 75 | 1015.2 |
| 20260906105439 | 24 | 149 | 1.6 | 3.2 | 0.00 | 0.00 | 0.00 | 75 | 1015.3 |
| 20260906104936 | 24 | 141 | 3.2 | 3.2 | 0.00 | 0.00 | 0.00 | 74 | 1015.2 |
| 20260906104434 | 24 | 135 | 1.6 | 3.2 | 0.00 | 0.00 | 0.00 | 73 | 1015.3 |
| 20260906103933 | 25 | 156 | 1.6 | 3.2 | 0.00 | 0.00 | 0.00 | 73 | 1015.1 |
| 20260906103432 | 25 | 146 | 1.6 | 3.2 | 0.00 | 0.00 | 0.00 | 73 | 1015.2 |
| 20260906102927 | 24 | 144 | 3.2 | 3.2 | 0.00 | 0.00 | 0.00 | 74 | 1015.3 |
| 20260906102426 | 24 | 182 | 1.6 | 1.6 | 0.00 | 0.00 | 0.00 | 74 | 1015.3 |
| 20260906101921 | 24 | 154 | 1.6 | 3.2 | 0.00 | 0.00 | 0.00 | 74 | 1015.2 |
| 20260906101417 | 24 | 138 | 3.2 | 4.8 | 0.00 | 0.00 | 0.00 | 75 | 1015.2 |
| 20260906100912 | 24 | 131 | 4.8 | 4.8 | 0.00 | 0.00 | 0.00 | 74 | 1015.2 |
| 20260906100411 | 24 | 128 | 3.2 | 3.2 | 0.00 | 0.00 | 0.00 | 74 | 1014.7 |
| 20260906095906 | 25 | 169 | 1.6 | 3.2 | 0.00 | 0.00 | 0.00 | 72 | 1014.9 |
| 20260906095402 | 25 | 152 | 1.6 | 3.2 | 0.00 | 0.00 | 0.00 | 73 | 1014.9 |
| 20260906094901 | 25 | 142 | 3.2 | 4.8 | 0.00 | 0.00 | 0.00 | 71 | 1014.7 |
| 20260906094356 | 25 | 116 | 1.6 | 3.2 | 0.00 | 0.00 | 0.00 | 71 | 1014.9 |
| 20260906093853 | 25 | 104 | 3.2 | 4.8 | 0.00 | 0.00 | 0.00 | 72 | 1015.2 |
| 20260906093349 | 25 | 109 | 3.2 | 4.8 | 0.00 | 0.00 | 0.00 | 72 | 1015.2 |
| 20260906092843 | 25 | 116 | 3.2 | 4.8 | 0.00 | 0.00 | 0.00 | 71 | 1015.1 |
| 20260906092343 | 25 | 137 | 1.6 | 3.2 | 0.00 | 0.00 | 0.00 | 71 | 1014.9 |
| 20260906091838 | 25 | 122 | 3.2 | 4.8 | 0.00 | 0.00 | 0.00 | 71 | 1015.2 |
| 20260906091335 | 25 | 122 | 0.0 | 1.6 | 0.00 | 0.00 | 0.00 | 72 | 1015.1 |
| 20260906090831 | 25 | 143 | 1.6 | 3.2 | 0.00 | 0.00 | 0.00 | 71 | 1015.2 |
| 20260906090330 | 26 | 190 | 1.6 | 3.2 | 0.00 | 0.00 | 0.00 | 70 | 1014.9 |
| 20260906085830 | 26 | 169 | 1.6 | 3.2 | 0.00 | 0.00 | 0.00 | 70 | 1015.1 |
| 20260906085330 | 26 | 157 | 3.2 | 3.2 | 0.00 | 0.00 | 0.00 | 69 | 1014.9 |
| 20260906084825 | 26 | 106 | 1.6 | 3.2 | 0.00 | 0.00 | 0.00 | 69 | 1014.9 |
| 20260906084324 | 26 | 138 | 3.2 | 4.8 | 0.00 | 0.00 | 0.00 | 67 | 1014.8 |
| 20260906083819 | 26 | 132 | 1.6 | 3.2 | 0.00 | 0.00 | 0.00 | 67 | 1014.6 |
| 20260906083315 | 26 | 202 | 3.2 | 3.2 | 0.00 | 0.00 | 0.00 | 68 | 1014.7 |
| 20260906082814 | 26 | 152 | 1.6 | 4.8 | 0.00 | 0.00 | 0.00 | 66 | 1014.9 |
| 20260906082309 | 26 | 96 | 3.2 | 6.4 | 0.00 | 0.00 | 0.00 | 66 | 1015.1 |
| 20260906081805 | 26 | 103 | 3.2 | 3.2 | 0.00 | 0.00 | 0.00 | 66 | 1014.8 |
| 20260906081301 | 26 | 119 | 1.6 | 3.2 | 0.00 | 0.00 | 0.00 | 66 | 1014.9 |
| 20260906080758 | 26 | 170 | 4.8 | 6.4 | 0.00 | 0.00 | 0.00 | 65 | 1014.7 |
| 20260906080254 | 26 | 173 | 3.2 | 4.8 | 0.00 | 0.00 | 0.00 | 65 | 1014.7 |
| 20260906075753 | 27 | 248 | 3.2 | 6.4 | 0.00 | 0.00 | 0.00 | 64 | 1014.8 |
| 20260906075253 | 27 | 163 | 6.4 | 6.4 | 0.00 | 0.00 | 0.00 | 63 | 1014.7 |
| 20260906074748 | 27 | 223 | 4.8 | 4.8 | 0.00 | 0.00 | 0.00 | 65 | 1014.8 |
| 20260906074247 | 27 | 223 | 1.6 | 3.2 | 0.00 | 0.00 | 0.00 | 62 | 1014.8 |
| 20260906073742 | 27 | 123 | 3.2 | 8.0 | 0.00 | 0.00 | 0.00 | 62 | 1014.7 |
| 20260906073242 | 27 | 133 | 6.4 | 8.0 | 0.00 | 0.00 | 0.00 | 63 | 1014.9 |
| 20260906072738 | 27 | 86 | 3.2 | 6.4 | 0.00 | 0.00 | 0.00 | 63 | 1014.8 |
| 20260906072233 | 27 | 135 | 3.2 | 3.2 | 0.00 | 0.00 | 0.00 | 63 | 1014.7 |
| 20260906071729 | 27 | 102 | 3.2 | 4.8 | 0.00 | 0.00 | 0.00 | 64 | 1014.9 |
| 20260906071229 | 27 | 109 | 4.8 | 4.8 | 0.00 | 0.00 | 0.00 | 64 | 1015.1 |
| 20260906070726 | 27 | 112 | 1.6 | 3.2 | 0.00 | 0.00 | 0.00 | 65 | 1015.2 |
| 20260906070221 | 27 | 87 | 3.2 | 4.8 | 0.00 | 0.00 | 0.00 | 62 | 1015.1 |
| 20260906065720 | 27 | 66 | 4.8 | 4.8 | 0.00 | 0.00 | 0.00 | 63 | 1015.2 |
| 20260906065216 | 27 | 112 | 1.6 | 4.8 | 0.00 | 0.00 | 0.00 | 62 | 1014.7 |
| 20260906064711 | 27 | 142 | 3.2 | 4.8 | 0.00 | 0.00 | 0.00 | 64 | 1015.1 |
| 20260906064207 | 27 | 159 | 3.2 | 4.8 | 0.00 | 0.00 | 0.00 | 63 | 1015.1 |
| 20260906063701 | 27 | 141 | 3.2 | 6.4 | 0.00 | 0.00 | 0.00 | 65 | 1014.8 |
| 20260906063157 | 27 | 136 | 3.2 | 4.8 | 0.00 | 0.00 | 0.00 | 65 | 1015.3 |
| 20260906062653 | 27 | 142 | 3.2 | 6.4 | 0.00 | 0.00 | 0.00 | 64 | 1015.1 |
| 20260906062151 | 26 | 153 | 3.2 | 4.8 | 0.00 | 0.00 | 0.00 | 68 | 1015.3 |
| 20260906061648 | 26 | 145 | 3.2 | 3.2 | 0.00 | 0.00 | 0.00 | 67 | 1015.4 |
| 20260906061148 | 27 | 135 | 0.0 | 1.6 | 0.00 | 0.00 | 0.00 | 65 | 1015.3 |
| 20260906060645 | 26 | 39 | 1.6 | 3.2 | 0.00 | 0.00 | 0.00 | 65 | 1015.2 |
| 20260906060142 | 26 | 304 | 0.0 | 0.0 | 0.00 | 0.00 | 0.00 | 66 | 1014.9 |
| 20260906055637 | 26 | 230 | 0.0 | 3.2 | 0.00 | 0.00 | 0.00 | 66 | 1015.2 |
| 20260906055132 | 26 | 217 | 0.0 | 1.6 | 0.00 | 0.00 | 0.00 | 65 | 1015.2 |
| 20260906054627 | 27 | 255 | 0.0 | 3.2 | 0.00 | 0.00 | 0.00 | 64 | 1014.9 |
| 20260906054122 | 27 | 96 | 0.0 | 4.8 | 0.00 | 0.00 | 0.00 | 63 | 1015.2 |
| 20260906053619 | 27 | 130 | 3.2 | 6.4 | 0.00 | 0.00 | 0.00 | 63 | 1014.9 |
| 20260906053114 | 27 | 111 | 3.2 | 4.8 | 0.00 | 0.00 | 0.00 | 62 | 1015.2 |
| 20260906052609 | 27 | 143 | 3.2 | 3.2 | 0.00 | 0.00 | 0.00 | 63 | 1015.1 |
| 20260906052106 | 27 | 111 | 1.6 | 1.6 | 0.00 | 0.00 | 0.00 | 62 | 1015.2 |
| 20260906051601 | 27 | 53 | 1.6 | 3.2 | 0.00 | 0.00 | 0.00 | 62 | 1014.9 |
| 20260906051057 | 27 | 64 | 0.0 | 1.6 | 0.00 | 0.00 | 0.00 | 62 | 1014.8 |
| 20260906050552 | 27 | 93 | 3.2 | 4.8 | 0.00 | 0.00 | 0.00 | 62 | 1014.9 |
| 20260906050047 | 27 | 102 | 6.4 | 6.4 | 0.00 | 0.00 | 0.00 | 61 | 1014.9 |
| 20260906045545 | 27 | 93 | 3.2 | 3.2 | 0.00 | 0.00 | 0.00 | 61 | 1014.9 |
| 20260906045041 | 27 | 71 | 3.2 | 6.4 | 0.00 | 0.00 | 0.00 | 61 | 1015.1 |
| 20260906044536 | 28 | 93 | 3.2 | 4.8 | 0.00 | 0.00 | 0.00 | 60 | 1014.8 |
| 20260906044032 | 28 | 104 | 9.7 | 9.7 | 0.00 | 0.00 | 0.00 | 58 | 1015.1 |
| 20260906043527 | 28 | 99 | 6.4 | 6.4 | 0.00 | 0.00 | 0.00 | 60 | 1014.9 |
| 20260906043024 | 28 | 112 | 3.2 | 3.2 | 0.00 | 0.00 | 0.00 | 60 | 1014.8 |
| 20260906042522 | 28 | 126 | 1.6 | 3.2 | 0.00 | 0.00 | 0.00 | 60 | 1015.1 |
| 20260906042017 | 28 | 151 | 1.6 | 3.2 | 0.00 | 0.00 | 0.00 | 59 | 1015.1 |
| 20260906041514 | 28 | 154 | 3.2 | 4.8 | 0.00 | 0.00 | 0.00 | 59 | 1015.2 |
| 20260906041013 | 28 | 136 | 6.4 | 8.0 | 0.00 | 0.00 | 0.00 | 58 | 1014.9 |
| 20260906040508 | 28 | 107 | 4.8 | 6.4 | 0.00 | 0.00 | 0.00 | 58 | 1015.1 |
| 20260906040004 | 28 | 100 | 6.4 | 8.0 | 0.00 | 0.00 | 0.00 | 58 | 1014.8 |
| 20260906035458 | 28 | 103 | 8.0 | 9.7 | 0.00 | 0.00 | 0.00 | 58 | 1015.1 |
| 20260906034954 | 28 | 106 | 4.8 | 8.0 | 0.00 | 0.00 | 0.00 | 57 | 1014.8 |
| 20260906034454 | 28 | 103 | 4.8 | 9.7 | 0.00 | 0.00 | 0.00 | 57 | 1014.8 |
| 20260906033949 | 28 | 96 | 9.7 | 9.7 | 0.00 | 0.00 | 0.00 | 57 | 1014.8 |
| 20260906033444 | 28 | 98 | 9.7 | 11.3 | 0.00 | 0.00 | 0.00 | 58 | 1014.7 |
| 20260906032940 | 28 | 104 | 4.8 | 8.0 | 0.00 | 0.00 | 0.00 | 59 | 1014.7 |
| 20260906032437 | 27 | 109 | 8.0 | 9.7 | 0.00 | 0.00 | 0.00 | 60 | 1014.6 |
| 20260906031930 | 28 | 92 | 6.4 | 9.7 | 0.00 | 0.00 | 0.00 | 58 | 1014.8 |
| 20260906031426 | 28 | 107 | 6.4 | 9.7 | 0.00 | 0.00 | 0.00 | 58 | 1014.6 |
| 20260906030921 | 28 | 106 | 6.4 | 9.7 | 0.00 | 0.00 | 0.00 | 57 | 1014.6 |
| 20260906030415 | 28 | 127 | 6.4 | 8.0 | 0.00 | 0.00 | 0.00 | 56 | 1014.7 |
| 20260906025910 | 28 | 108 | 4.8 | 6.4 | 0.00 | 0.00 | 0.00 | 57 | 1014.6 |
| 20260906025404 | 29 | 134 | 3.2 | 8.0 | 0.00 | 0.00 | 0.00 | 56 | 1014.5 |
| 20260906024903 | 30 | 111 | 3.2 | 4.8 | 0.00 | 0.00 | 0.00 | 55 | 1014.3 |
| 20260906024402 | 30 | 91 | 3.2 | 8.0 | 0.00 | 0.00 | 0.00 | 55 | 1014.4 |
| 20260906023857 | 30 | 92 | 3.2 | 3.2 | 0.00 | 0.00 | 0.00 | 55 | 1014.5 |
| 20260906023354 | 30 | 93 | 1.6 | 3.2 | 0.00 | 0.00 | 0.00 | 55 | 1014.3 |
| 20260906022854 | 30 | 107 | 0.0 | 3.2 | 0.00 | 0.00 | 0.00 | 54 | 1014.4 |
| 20260906022349 | 30 | 44 | 3.2 | 4.8 | 0.00 | 0.00 | 0.00 | 53 | 1014.2 |
| 20260906021845 | 30 | 48 | 6.4 | 6.4 | 0.00 | 0.00 | 0.00 | 55 | 1014.3 |
| 20260906021344 | 30 | 32 | 9.7 | 11.3 | 0.00 | 0.00 | 0.00 | 55 | 1014.0 |
| 20260906020840 | 30 | 49 | 0.0 | 1.6 | 0.00 | 0.00 | 0.00 | 54 | 1013.9 |
| 20260906020339 | 30 | 37 | 0.0 | 1.6 | 0.00 | 0.00 | 0.00 | 54 | 1013.9 |
| 20260906015834 | 29 | 86 | 3.2 | 3.2 | 0.00 | 0.00 | 0.00 | 56 | 1013.6 |
| 20260906015333 | 30 | 122 | 3.2 | 4.8 | 0.00 | 0.00 | 0.00 | 56 | 1013.9 |
| 20260906014832 | 30 | 137 | 3.2 | 3.2 | 0.00 | 0.00 | 0.00 | 55 | 1013.5 |
| 20260906014327 | 31 | 125 | 3.2 | 3.2 | 0.00 | 0.00 | 0.00 | 53 | 1013.7 |
| 20260906013824 | 31 | 110 | 1.6 | 4.8 | 0.00 | 0.00 | 0.00 | 51 | 1013.6 |
| 20260906013319 | 31 | 123 | 3.2 | 4.8 | 0.00 | 0.00 | 0.00 | 50 | 1013.6 |
| 20260906012815 | 31 | 136 | 3.2 | 6.4 | 0.00 | 0.00 | 0.00 | 51 | 1013.5 |
| 20260906012314 | 30 | 105 | 6.4 | 9.7 | 0.00 | 0.00 | 0.00 | 52 | 1013.5 |
| 20260906011809 | 32 | 111 | 0.0 | 1.6 | 0.00 | 0.00 | 0.00 | 48 | 1013.6 |
| 20260906011309 | 32 | 104 | 0.0 | 3.2 | 0.00 | 0.00 | 0.00 | 47 | 1013.4 |
| 20260906010805 | 32 | 115 | 1.6 | 3.2 | 0.00 | 0.00 | 0.00 | 46 | 1013.4 |
| 20260906010301 | 33 | 49 | 0.0 | 3.2 | 0.00 | 0.00 | 0.00 | 44 | 1013.4 |
| 20260906005756 | 33 | 58 | 3.2 | 4.8 | 0.00 | 0.00 | 0.00 | 44 | 1013.4 |
| 20260906005255 | 34 | 56 | 1.6 | 3.2 | 0.00 | 0.00 | 0.00 | 43 | 1013.5 |
| 20260906004754 | 34 | 48 | 3.2 | 4.8 | 0.00 | 0.00 | 0.00 | 43 | 1013.6 |
| 20260906004249 | 34 | 38 | 3.2 | 4.8 | 0.00 | 0.00 | 0.00 | 43 | 1013.4 |
| 20260906003749 | 35 | 40 | 4.8 | 6.4 | 0.00 | 0.00 | 0.00 | 42 | 1013.5 |
| 20260906003245 | 35 | 28 | 4.8 | 6.4 | 0.00 | 0.00 | 0.00 | 41 | 1013.4 |
| 20260906002741 | 35 | 42 | 3.2 | 8.0 | 0.00 | 0.00 | 0.00 | 41 | 1013.5 |
| 20260906002240 | 35 | 51 | 3.2 | 6.4 | 0.00 | 0.00 | 0.00 | 41 | 1013.3 |
| 20260906001736 | 35 | 51 | 6.4 | 8.0 | 0.00 | 0.00 | 0.00 | 40 | 1013.5 |
| 20260906001231 | 36 | 53 | 3.2 | 6.4 | 0.00 | 0.00 | 0.00 | 40 | 1013.4 |
| 20260906000726 | 36 | 53 | 3.2 | 6.4 | 0.00 | 0.00 | 0.00 | 39 | 1013.4 |
| 20260906000221 | 36 | 35 | 4.8 | 8.0 | 0.00 | 0.00 | 0.00 | 38 | 1013.4 |
| 20260905235720 | 36 | 57 | 3.2 | 8.0 | 0.00 | 0.00 | 0.00 | 38 | 1013.4 |
| 20260905235215 | 37 | 78 | 3.2 | 6.4 | 0.00 | 0.00 | 0.00 | 36 | 1013.4 |
| 20260905234711 | 37 | 29 | 4.8 | 6.4 | 0.00 | 0.00 | 0.00 | 36 | 1013.3 |
| 20260905234206 | 37 | 95 | 3.2 | 6.4 | 0.00 | 0.00 | 0.00 | 36 | 1013.4 |
| 20260905233701 | 37 | 80 | 4.8 | 6.4 | 0.00 | 0.00 | 0.00 | 36 | 1013.3 |
| 20260905233201 | 37 | 60 | 3.2 | 6.4 | 0.00 | 0.00 | 0.00 | 36 | 1013.3 |
| 20260905232656 | 37 | 100 | 6.4 | 8.0 | 0.00 | 0.00 | 0.00 | 36 | 1013.3 |
| 20260905232152 | 37 | 83 | 3.2 | 6.4 | 0.00 | 0.00 | 0.00 | 37 | 1013.4 |
| 20260905231647 | 37 | 34 | 6.4 | 8.0 | 0.00 | 0.00 | 0.00 | 37 | 1013.4 |
| 20260905231143 | 37 | 47 | 6.4 | 8.0 | 0.00 | 0.00 | 0.00 | 36 | 1013.5 |
| 20260905230638 | 37 | 96 | 6.4 | 12.9 | 0.00 | 0.00 | 0.00 | 36 | 1013.3 |
| 20260905230136 | 37 | 257 | 0.0 | 4.8 | 0.00 | 0.00 | 0.00 | 36 | 1013.3 |
| 20260905225636 | 37 | 76 | 8.0 | 11.3 | 0.00 | 0.00 | 0.00 | 37 | 1013.3 |
| 20260905225137 | 37 | 87 | 3.2 | 16.1 | 0.00 | 0.00 | 0.00 | 37 | 1013.1 |
| 20260905224636 | 37 | 123 | 9.7 | 9.7 | 0.00 | 0.00 | 0.00 | 37 | 1013.1 |
| 20260905224136 | 37 | 124 | 6.4 | 9.7 | 0.00 | 0.00 | 0.00 | 37 | 1013.1 |
| 20260905223633 | 38 | 68 | 3.2 | 4.8 | 0.00 | 0.00 | 0.00 | 36 | 1013.1 |
| 20260905223129 | 37 | 116 | 0.0 | 6.4 | 0.00 | 0.00 | 0.00 | 36 | 1013.2 |
| 20260905222625 | 38 | 193 | 1.6 | 6.4 | 0.00 | 0.00 | 0.00 | 35 | 1013.2 |
| 20260905222119 | 38 | 229 | 3.2 | 9.7 | 0.00 | 0.00 | 0.00 | 36 | 1013.2 |
| 20260905221615 | 38 | 279 | 8.0 | 11.3 | 0.00 | 0.00 | 0.00 | 36 | 1013.4 |
| 20260905221111 | 38 | 287 | 4.8 | 6.4 | 0.00 | 0.00 | 0.00 | 36 | 1013.3 |
| 20260905220607 | 37 | 341 | 1.6 | 6.4 | 0.00 | 0.00 | 0.00 | 38 | 1013.4 |
| 20260905220103 | 37 | 227 | 8.0 | 12.9 | 0.00 | 0.00 | 0.00 | 37 | 1013.5 |
| 20260905215602 | 37 | 71 | 6.4 | 9.7 | 0.00 | 0.00 | 0.00 | 36 | 1013.4 |
| 20260905215058 | 37 | 84 | 3.2 | 12.9 | 0.00 | 0.00 | 0.00 | 37 | 1013.6 |
| 20260905214554 | 37 | 47 | 6.4 | 9.7 | 0.00 | 0.00 | 0.00 | 37 | 1013.4 |
| 20260905214048 | 37 | 118 | 6.4 | 12.9 | 0.00 | 0.00 | 0.00 | 37 | 1013.8 |
| 20260905213543 | 37 | 27 | 9.7 | 16.1 | 0.00 | 0.00 | 0.00 | 37 | 1013.7 |
| 20260905213040 | 37 | 32 | 8.0 | 20.9 | 0.00 | 0.00 | 0.00 | 37 | 1013.7 |
| 20260905212540 | 37 | 13 | 9.7 | 20.9 | 0.00 | 0.00 | 0.00 | 37 | 1013.5 |
| 20260905212039 | 37 | 59 | 3.2 | 16.1 | 0.00 | 0.00 | 0.00 | 37 | 1013.8 |
| 20260905211534 | 38 | 279 | 4.8 | 8.0 | 0.00 | 0.00 | 0.00 | 36 | 1013.9 |
| 20260905211030 | 38 | 326 | 1.6 | 9.7 | 0.00 | 0.00 | 0.00 | 36 | 1013.9 |
| 20260905210526 | 37 | 295 | 9.7 | 17.7 | 0.00 | 0.00 | 0.00 | 36 | 1013.9 |
| 20260905210025 | 37 | 4 | 4.8 | 6.4 | 0.00 | 0.00 | 0.00 | 37 | 1014.2 |
| 20260905205525 | 37 | 31 | 6.4 | 9.7 | 0.00 | 0.00 | 0.00 | 38 | 1014.2 |
| 20260905205024 | 36 | 341 | 3.2 | 8.0 | 0.00 | 0.00 | 0.00 | 39 | 1014.6 |
| 20260905204519 | 36 | 29 | 14.5 | 16.1 | 0.00 | 0.00 | 0.00 | 40 | 1014.5 |
| 20260905204014 | 36 | 49 | 6.4 | 16.1 | 0.00 | 0.00 | 0.00 | 40 | 1014.5 |
| 20260905203509 | 36 | 337 | 8.0 | 8.0 | 0.00 | 0.00 | 0.00 | 39 | 1014.5 |
| 20260905203004 | 36 | 354 | 4.8 | 12.9 | 0.00 | 0.00 | 0.00 | 40 | 1014.4 |
| 20260905202500 | 36 | 19 | 16.1 | 17.7 | 0.00 | 0.00 | 0.00 | 40 | 1014.7 |
| 20260905201955 | 37 | 26 | 14.5 | 16.1 | 0.00 | 0.00 | 0.00 | 39 | 1014.8 |
| 20260905201450 | 38 | 27 | 8.0 | 16.1 | 0.00 | 0.00 | 0.00 | 37 | 1014.7 |
| 20260905200949 | 39 | 45 | 3.2 | 6.4 | 0.00 | 0.00 | 0.00 | 35 | 1014.7 |
| 20260905200446 | 38 | 273 | 9.7 | 16.1 | 0.00 | 0.00 | 0.00 | 36 | 1014.8 |
| 20260905195944 | 38 | 315 | 6.4 | 14.5 | 0.00 | 0.00 | 0.00 | 36 | 1014.8 |
| 20260905195439 | 38 | 299 | 3.2 | 14.5 | 0.00 | 0.00 | 0.00 | 37 | 1014.9 |
| 20260905194935 | 37 | 21 | 12.9 | 12.9 | 0.00 | 0.00 | 0.00 | 37 | 1015.1 |
| 20260905194434 | 37 | 33 | 4.8 | 11.3 | 0.00 | 0.00 | 0.00 | 37 | 1015.3 |
| 20260905193929 | 37 | 11 | 6.4 | 14.5 | 0.00 | 0.00 | 0.00 | 39 | 1015.1 |
| 20260905193424 | 37 | 38 | 3.2 | 8.0 | 0.00 | 0.00 | 0.00 | 39 | 1014.9 |
| 20260905192919 | 36 | 43 | 12.9 | 16.1 | 0.00 | 0.00 | 0.00 | 41 | 1015.4 |
| 20260905192415 | 36 | 310 | 11.3 | 19.3 | 0.00 | 0.00 | 0.00 | 42 | 1015.2 |
| 20260905191915 | 37 | 311 | 17.7 | 24.1 | 0.00 | 0.00 | 0.00 | 39 | 1015.5 |
| 20260905191414 | 37 | 14 | 9.7 | 16.1 | 0.00 | 0.00 | 0.00 | 40 | 1015.5 |
| 20260905190908 | 38 | 27 | 0.0 | 6.4 | 0.00 | 0.00 | 0.00 | 38 | 1015.4 |
| 20260905190406 | 36 | 325 | 8.0 | 9.7 | 0.00 | 0.00 | 0.00 | 40 | 1015.6 |
| 20260905185905 | 36 | 33 | 6.4 | 14.5 | 0.00 | 0.00 | 0.00 | 40 | 1015.6 |
| 20260905185400 | 37 | 53 | 4.8 | 11.3 | 0.00 | 0.00 | 0.00 | 39 | 1015.7 |
| 20260905184859 | 37 | 203 | 6.4 | 9.7 | 0.00 | 0.00 | 0.00 | 40 | 1016.0 |
| 20260905184358 | 37 | 311 | 9.7 | 9.7 | 0.00 | 0.00 | 0.00 | 40 | 1016.1 |
| 20260905183856 | 36 | 309 | 0.0 | 4.8 | 0.00 | 0.00 | 0.00 | 41 | 1016.1 |
| 20260905183352 | 36 | 157 | 8.0 | 11.3 | 0.00 | 0.00 | 0.00 | 42 | 1015.9 |
| 20260905182847 | 36 | 33 | 8.0 | 16.1 | 0.00 | 0.00 | 0.00 | 42 | 1016.3 |
| 20260905182341 | 36 | 24 | 9.7 | 14.5 | 0.00 | 0.00 | 0.00 | 41 | 1016.3 |
| 20260905181837 | 37 | 289 | 6.4 | 8.0 | 0.00 | 0.00 | 0.00 | 41 | 1016.3 |